sensor_id;sensor_type;location;lat;lon;timestamp;P1;durP1;ratioP1;P2;durP2;ratioP2
42334;SDS011;27986;42.700;24.178;2023-01-06T00:01:13;19.58;;;9.13;;
42334;SDS011;27986;42.700;24.178;2023-01-06T00:03:43;23.98;;;9.73;;
42334;SDS011;27986;42.700;24.178;2023-01-06T00:06:12;23.98;;;11.32;;
42334;SDS011;27986;42.700;24.178;2023-01-06T00:08:37;26.48;;;11.32;;
42334;SDS011;27986;42.700;24.178;2023-01-06T00:11:08;20.45;;;8.02;;
42334;SDS011;27986;42.700;24.178;2023-01-06T00:13:34;15.88;;;4.95;;
42334;SDS011;27986;42.700;24.178;2023-01-06T00:16:07;16.85;;;8.43;;
42334;SDS011;27986;42.700;24.178;2023-01-06T00:18:34;32.70;;;10.75;;
42334;SDS011;27986;42.700;24.178;2023-01-06T00:21:00;28.27;;;9.23;;
42334;SDS011;27986;42.700;24.178;2023-01-06T00:23:26;16.23;;;7.07;;
42334;SDS011;27986;42.700;24.178;2023-01-06T00:25:52;32.42;;;10.85;;
42334;SDS011;27986;42.700;24.178;2023-01-06T00:28:18;27.67;;;9.90;;
42334;SDS011;27986;42.700;24.178;2023-01-06T00:30:43;14.32;;;5.63;;
42334;SDS011;27986;42.700;24.178;2023-01-06T00:33:09;14.98;;;6.68;;
42334;SDS011;27986;42.700;24.178;2023-01-06T00:35:34;16.95;;;6.85;;
42334;SDS011;27986;42.700;24.178;2023-01-06T00:38:00;17.60;;;7.53;;
42334;SDS011;27986;42.700;24.178;2023-01-06T00:40:26;20.55;;;8.52;;
42334;SDS011;27986;42.700;24.178;2023-01-06T00:42:51;22.23;;;8.65;;
42334;SDS011;27986;42.700;24.178;2023-01-06T00:45:16;15.75;;;6.05;;
42334;SDS011;27986;42.700;24.178;2023-01-06T00:47:42;16.33;;;6.68;;
42334;SDS011;27986;42.700;24.178;2023-01-06T00:50:08;17.05;;;7.80;;
42334;SDS011;27986;42.700;24.178;2023-01-06T00:52:33;12.98;;;4.90;;
42334;SDS011;27986;42.700;24.178;2023-01-06T00:54:59;14.82;;;5.68;;
42334;SDS011;27986;42.700;24.178;2023-01-06T00:57:24;13.02;;;5.28;;
42334;SDS011;27986;42.700;24.178;2023-01-06T00:59:50;13.00;;;5.30;;
42334;SDS011;27986;42.700;24.178;2023-01-06T01:02:16;10.20;;;5.18;;
42334;SDS011;27986;42.700;24.178;2023-01-06T01:04:41;13.23;;;5.35;;
42334;SDS011;27986;42.700;24.178;2023-01-06T01:07:07;18.58;;;5.40;;
42334;SDS011;27986;42.700;24.178;2023-01-06T01:09:32;9.23;;;3.70;;
42334;SDS011;27986;42.700;24.178;2023-01-06T01:11:58;8.55;;;2.63;;
42334;SDS011;27986;42.700;24.178;2023-01-06T01:14:43;10.68;;;2.63;;
42334;SDS011;27986;42.700;24.178;2023-01-06T01:17:18;8.27;;;2.92;;
42334;SDS011;27986;42.700;24.178;2023-01-06T01:22:12;6.70;;;2.05;;
42334;SDS011;27986;42.700;24.178;2023-01-06T01:24:38;6.40;;;2.33;;
42334;SDS011;27986;42.700;24.178;2023-01-06T01:27:03;4.78;;;1.73;;
42334;SDS011;27986;42.700;24.178;2023-01-06T01:29:29;7.82;;;2.55;;
42334;SDS011;27986;42.700;24.178;2023-01-06T01:31:55;7.22;;;3.42;;
42334;SDS011;27986;42.700;24.178;2023-01-06T01:34:20;5.18;;;2.05;;
42334;SDS011;27986;42.700;24.178;2023-01-06T01:36:47;10.88;;;3.50;;
42334;SDS011;27986;42.700;24.178;2023-01-06T01:39:14;9.85;;;3.33;;
42334;SDS011;27986;42.700;24.178;2023-01-06T01:41:42;9.43;;;3.08;;
42334;SDS011;27986;42.700;24.178;2023-01-06T01:47:11;5.53;;;2.90;;
42334;SDS011;27986;42.700;24.178;2023-01-06T01:49:54;8.43;;;2.38;;
42334;SDS011;27986;42.700;24.178;2023-01-06T01:52:23;5.50;;;2.70;;
42334;SDS011;27986;42.700;24.178;2023-01-06T01:54:49;4.00;;;2.25;;
42334;SDS011;27986;42.700;24.178;2023-01-06T01:57:29;9.63;;;2.83;;
42334;SDS011;27986;42.700;24.178;2023-01-06T01:59:59;4.45;;;2.13;;
42334;SDS011;27986;42.700;24.178;2023-01-06T02:02:25;5.70;;;2.40;;
42334;SDS011;27986;42.700;24.178;2023-01-06T02:04:55;6.10;;;2.72;;
42334;SDS011;27986;42.700;24.178;2023-01-06T02:07:22;7.72;;;2.25;;
42334;SDS011;27986;42.700;24.178;2023-01-06T02:12:24;5.68;;;2.70;;
42334;SDS011;27986;42.700;24.178;2023-01-06T02:14:50;9.40;;;3.67;;
42334;SDS011;27986;42.700;24.178;2023-01-06T02:17:23;7.13;;;2.60;;
42334;SDS011;27986;42.700;24.178;2023-01-06T02:20:01;5.15;;;2.08;;
42334;SDS011;27986;42.700;24.178;2023-01-06T02:31:26;8.20;;;2.72;;
42334;SDS011;27986;42.700;24.178;2023-01-06T02:34:12;6.55;;;2.90;;
42334;SDS011;27986;42.700;24.178;2023-01-06T02:44:47;7.45;;;3.35;;
42334;SDS011;27986;42.700;24.178;2023-01-06T02:47:20;7.88;;;2.97;;
42334;SDS011;27986;42.700;24.178;2023-01-06T02:50:15;7.97;;;3.25;;
42334;SDS011;27986;42.700;24.178;2023-01-06T03:01:10;5.28;;;2.42;;
42334;SDS011;27986;42.700;24.178;2023-01-06T03:03:43;9.88;;;2.78;;
42334;SDS011;27986;42.700;24.178;2023-01-06T03:06:13;7.50;;;3.38;;
42334;SDS011;27986;42.700;24.178;2023-01-06T03:08:42;7.28;;;2.58;;
42334;SDS011;27986;42.700;24.178;2023-01-06T03:11:10;9.40;;;3.88;;
42334;SDS011;27986;42.700;24.178;2023-01-06T03:13:51;10.45;;;4.20;;
42334;SDS011;27986;42.700;24.178;2023-01-06T03:16:17;6.68;;;2.70;;
42334;SDS011;27986;42.700;24.178;2023-01-06T03:18:44;6.47;;;2.92;;
42334;SDS011;27986;42.700;24.178;2023-01-06T03:21:13;11.10;;;4.18;;
42334;SDS011;27986;42.700;24.178;2023-01-06T03:23:42;8.32;;;4.10;;
42334;SDS011;27986;42.700;24.178;2023-01-06T03:26:09;10.73;;;4.45;;
42334;SDS011;27986;42.700;24.178;2023-01-06T03:28:35;6.38;;;2.58;;
42334;SDS011;27986;42.700;24.178;2023-01-06T03:31:08;5.97;;;2.45;;
42334;SDS011;27986;42.700;24.178;2023-01-06T03:33:53;6.38;;;3.63;;
42334;SDS011;27986;42.700;24.178;2023-01-06T03:42:02;12.88;;;3.67;;
42334;SDS011;27986;42.700;24.178;2023-01-06T03:47:52;11.75;;;4.32;;
42334;SDS011;27986;42.700;24.178;2023-01-06T03:50:32;5.63;;;2.85;;
42334;SDS011;27986;42.700;24.178;2023-01-06T03:55:45;8.32;;;3.85;;
42334;SDS011;27986;42.700;24.178;2023-01-06T03:58:15;5.32;;;2.92;;
42334;SDS011;27986;42.700;24.178;2023-01-06T04:00:44;9.52;;;3.83;;
42334;SDS011;27986;42.700;24.178;2023-01-06T04:03:11;6.07;;;2.97;;
42334;SDS011;27986;42.700;24.178;2023-01-06T04:05:38;9.23;;;4.20;;
42334;SDS011;27986;42.700;24.178;2023-01-06T04:08:04;9.40;;;2.80;;
42334;SDS011;27986;42.700;24.178;2023-01-06T04:10:30;8.00;;;2.85;;
42334;SDS011;27986;42.700;24.178;2023-01-06T04:12:55;11.43;;;2.72;;
42334;SDS011;27986;42.700;24.178;2023-01-06T04:15:22;6.63;;;2.78;;
42334;SDS011;27986;42.700;24.178;2023-01-06T04:17:49;8.85;;;4.05;;
42334;SDS011;27986;42.700;24.178;2023-01-06T04:20:16;9.63;;;2.63;;
42334;SDS011;27986;42.700;24.178;2023-01-06T04:22:43;5.60;;;2.33;;
42334;SDS011;27986;42.700;24.178;2023-01-06T04:25:08;7.43;;;2.95;;
42334;SDS011;27986;42.700;24.178;2023-01-06T04:27:34;8.70;;;2.97;;
42334;SDS011;27986;42.700;24.178;2023-01-06T04:30:00;8.27;;;2.70;;
42334;SDS011;27986;42.700;24.178;2023-01-06T04:32:25;5.22;;;2.05;;
42334;SDS011;27986;42.700;24.178;2023-01-06T04:34:51;6.18;;;2.72;;
42334;SDS011;27986;42.700;24.178;2023-01-06T04:37:16;4.45;;;2.33;;
42334;SDS011;27986;42.700;24.178;2023-01-06T04:39:42;10.50;;;2.63;;
42334;SDS011;27986;42.700;24.178;2023-01-06T04:42:08;5.82;;;2.85;;
42334;SDS011;27986;42.700;24.178;2023-01-06T04:44:33;4.72;;;2.22;;
42334;SDS011;27986;42.700;24.178;2023-01-06T04:46:59;4.97;;;2.92;;
42334;SDS011;27986;42.700;24.178;2023-01-06T04:49:25;6.32;;;2.50;;
42334;SDS011;27986;42.700;24.178;2023-01-06T04:51:51;5.30;;;2.42;;
42334;SDS011;27986;42.700;24.178;2023-01-06T04:54:16;7.60;;;3.28;;
42334;SDS011;27986;42.700;24.178;2023-01-06T04:56:42;5.03;;;2.13;;
42334;SDS011;27986;42.700;24.178;2023-01-06T04:59:07;4.22;;;2.17;;
42334;SDS011;27986;42.700;24.178;2023-01-06T05:01:33;5.50;;;2.58;;
42334;SDS011;27986;42.700;24.178;2023-01-06T05:03:58;6.95;;;2.20;;
42334;SDS011;27986;42.700;24.178;2023-01-06T05:06:24;6.55;;;2.42;;
42334;SDS011;27986;42.700;24.178;2023-01-06T05:08:49;5.03;;;2.38;;
42334;SDS011;27986;42.700;24.178;2023-01-06T05:11:16;8.88;;;2.78;;
42334;SDS011;27986;42.700;24.178;2023-01-06T05:13:43;4.68;;;2.30;;
42334;SDS011;27986;42.700;24.178;2023-01-06T05:16:17;10.25;;;3.20;;
42334;SDS011;27986;42.700;24.178;2023-01-06T05:18:43;7.95;;;3.20;;
42334;SDS011;27986;42.700;24.178;2023-01-06T05:21:09;9.18;;;3.10;;
42334;SDS011;27986;42.700;24.178;2023-01-06T05:23:36;14.73;;;2.83;;
42334;SDS011;27986;42.700;24.178;2023-01-06T05:26:02;5.85;;;1.77;;
42334;SDS011;27986;42.700;24.178;2023-01-06T05:28:28;9.23;;;4.18;;
42334;SDS011;27986;42.700;24.178;2023-01-06T05:31:03;6.85;;;2.80;;
42334;SDS011;27986;42.700;24.178;2023-01-06T05:33:30;4.97;;;1.73;;
42334;SDS011;27986;42.700;24.178;2023-01-06T05:35:57;2.95;;;1.55;;
42334;SDS011;27986;42.700;24.178;2023-01-06T05:38:23;2.75;;;1.63;;
42334;SDS011;27986;42.700;24.178;2023-01-06T05:40:52;5.78;;;2.88;;
42334;SDS011;27986;42.700;24.178;2023-01-06T05:43:22;8.50;;;2.45;;
42334;SDS011;27986;42.700;24.178;2023-01-06T05:45:48;10.25;;;4.60;;
42334;SDS011;27986;42.700;24.178;2023-01-06T05:48:14;9.40;;;1.65;;
42334;SDS011;27986;42.700;24.178;2023-01-06T05:50:39;7.30;;;1.02;;
42334;SDS011;27986;42.700;24.178;2023-01-06T05:53:05;26.70;;;2.58;;
42334;SDS011;27986;42.700;24.178;2023-01-06T05:55:30;6.50;;;2.42;;
42334;SDS011;27986;42.700;24.178;2023-01-06T05:57:56;1.13;;;0.70;;
42334;SDS011;27986;42.700;24.178;2023-01-06T06:00:21;6.53;;;2.13;;
42334;SDS011;27986;42.700;24.178;2023-01-06T06:02:47;4.68;;;1.60;;
42334;SDS011;27986;42.700;24.178;2023-01-06T06:05:12;2.80;;;1.27;;
42334;SDS011;27986;42.700;24.178;2023-01-06T06:07:37;2.85;;;1.10;;
42334;SDS011;27986;42.700;24.178;2023-01-06T06:10:03;1.85;;;0.70;;
42334;SDS011;27986;42.700;24.178;2023-01-06T06:12:29;4.72;;;1.90;;
42334;SDS011;27986;42.700;24.178;2023-01-06T06:14:55;8.05;;;2.65;;
42334;SDS011;27986;42.700;24.178;2023-01-06T06:17:20;6.60;;;1.27;;
42334;SDS011;27986;42.700;24.178;2023-01-06T06:19:46;3.15;;;1.13;;
42334;SDS011;27986;42.700;24.178;2023-01-06T06:22:11;7.07;;;2.83;;
42334;SDS011;27986;42.700;24.178;2023-01-06T06:24:37;1.40;;;0.88;;
42334;SDS011;27986;42.700;24.178;2023-01-06T06:27:02;3.40;;;1.52;;
42334;SDS011;27986;42.700;24.178;2023-01-06T06:29:28;3.10;;;0.80;;
42334;SDS011;27986;42.700;24.178;2023-01-06T06:31:54;2.55;;;1.33;;
42334;SDS011;27986;42.700;24.178;2023-01-06T06:34:19;9.07;;;2.08;;
42334;SDS011;27986;42.700;24.178;2023-01-06T06:36:45;4.65;;;1.83;;
42334;SDS011;27986;42.700;24.178;2023-01-06T06:39:10;1.52;;;0.70;;
42334;SDS011;27986;42.700;24.178;2023-01-06T06:41:35;4.63;;;1.85;;
42334;SDS011;27986;42.700;24.178;2023-01-06T06:44:01;5.18;;;1.70;;
42334;SDS011;27986;42.700;24.178;2023-01-06T06:46:28;5.13;;;1.40;;
42334;SDS011;27986;42.700;24.178;2023-01-06T06:48:53;2.60;;;0.30;;
42334;SDS011;27986;42.700;24.178;2023-01-06T06:51:19;5.43;;;2.10;;
42334;SDS011;27986;42.700;24.178;2023-01-06T06:53:45;3.85;;;1.75;;
42334;SDS011;27986;42.700;24.178;2023-01-06T06:56:12;3.33;;;1.70;;
42334;SDS011;27986;42.700;24.178;2023-01-06T06:58:38;3.67;;;1.27;;
42334;SDS011;27986;42.700;24.178;2023-01-06T07:01:05;5.28;;;2.00;;
42334;SDS011;27986;42.700;24.178;2023-01-06T07:03:35;4.63;;;1.80;;
42334;SDS011;27986;42.700;24.178;2023-01-06T07:06:00;1.88;;;1.02;;
42334;SDS011;27986;42.700;24.178;2023-01-06T07:08:27;7.00;;;1.95;;
42334;SDS011;27986;42.700;24.178;2023-01-06T07:10:53;5.85;;;0.95;;
42334;SDS011;27986;42.700;24.178;2023-01-06T07:13:19;2.20;;;0.75;;
42334;SDS011;27986;42.700;24.178;2023-01-06T07:15:44;4.85;;;1.20;;
42334;SDS011;27986;42.700;24.178;2023-01-06T07:18:10;5.82;;;1.88;;
42334;SDS011;27986;42.700;24.178;2023-01-06T07:20:36;3.72;;;1.65;;
42334;SDS011;27986;42.700;24.178;2023-01-06T07:23:03;1.33;;;0.38;;
42334;SDS011;27986;42.700;24.178;2023-01-06T07:25:29;3.28;;;1.52;;
42334;SDS011;27986;42.700;24.178;2023-01-06T07:27:56;7.28;;;2.05;;
42334;SDS011;27986;42.700;24.178;2023-01-06T07:30:23;2.85;;;1.60;;
42334;SDS011;27986;42.700;24.178;2023-01-06T07:32:50;2.47;;;0.77;;
42334;SDS011;27986;42.700;24.178;2023-01-06T07:35:16;5.05;;;1.45;;
42334;SDS011;27986;42.700;24.178;2023-01-06T07:37:42;4.90;;;1.88;;
42334;SDS011;27986;42.700;24.178;2023-01-06T07:40:08;11.85;;;4.88;;
42334;SDS011;27986;42.700;24.178;2023-01-06T07:42:34;4.28;;;1.70;;
42334;SDS011;27986;42.700;24.178;2023-01-06T07:45:00;1.38;;;0.65;;
42334;SDS011;27986;42.700;24.178;2023-01-06T07:47:26;2.20;;;1.05;;
42334;SDS011;27986;42.700;24.178;2023-01-06T07:49:51;4.78;;;1.17;;
42334;SDS011;27986;42.700;24.178;2023-01-06T07:52:17;4.60;;;2.33;;
42334;SDS011;27986;42.700;24.178;2023-01-06T07:54:42;4.05;;;1.20;;
42334;SDS011;27986;42.700;24.178;2023-01-06T07:57:08;1.92;;;1.08;;
42334;SDS011;27986;42.700;24.178;2023-01-06T07:59:33;3.90;;;1.40;;
42334;SDS011;27986;42.700;24.178;2023-01-06T08:01:58;3.40;;;0.90;;
42334;SDS011;27986;42.700;24.178;2023-01-06T08:04:24;4.70;;;1.45;;
42334;SDS011;27986;42.700;24.178;2023-01-06T08:06:49;2.05;;;0.95;;
42334;SDS011;27986;42.700;24.178;2023-01-06T08:09:15;2.70;;;0.85;;
42334;SDS011;27986;42.700;24.178;2023-01-06T08:11:40;3.22;;;1.30;;
42334;SDS011;27986;42.700;24.178;2023-01-06T08:14:06;4.50;;;1.95;;
42334;SDS011;27986;42.700;24.178;2023-01-06T08:16:31;5.32;;;2.03;;
42334;SDS011;27986;42.700;24.178;2023-01-06T08:18:57;2.97;;;1.35;;
42334;SDS011;27986;42.700;24.178;2023-01-06T08:21:22;9.80;;;3.42;;
42334;SDS011;27986;42.700;24.178;2023-01-06T08:23:47;5.90;;;1.88;;
42334;SDS011;27986;42.700;24.178;2023-01-06T08:26:14;5.65;;;1.45;;
42334;SDS011;27986;42.700;24.178;2023-01-06T08:28:42;2.72;;;1.00;;
42334;SDS011;27986;42.700;24.178;2023-01-06T08:31:09;2.97;;;1.00;;
42334;SDS011;27986;42.700;24.178;2023-01-06T08:33:39;4.43;;;2.13;;
42334;SDS011;27986;42.700;24.178;2023-01-06T08:36:05;4.40;;;1.52;;
42334;SDS011;27986;42.700;24.178;2023-01-06T08:38:33;5.13;;;1.58;;
42334;SDS011;27986;42.700;24.178;2023-01-06T08:41:00;4.40;;;1.77;;
42334;SDS011;27986;42.700;24.178;2023-01-06T08:43:27;3.10;;;1.10;;
42334;SDS011;27986;42.700;24.178;2023-01-06T08:45:57;13.93;;;5.80;;
42334;SDS011;27986;42.700;24.178;2023-01-06T08:48:24;28.00;;;10.32;;
42334;SDS011;27986;42.700;24.178;2023-01-06T08:50:50;2.25;;;1.30;;
42334;SDS011;27986;42.700;24.178;2023-01-06T08:53:15;9.40;;;2.17;;
42334;SDS011;27986;42.700;24.178;2023-01-06T08:55:41;5.63;;;1.98;;
42334;SDS011;27986;42.700;24.178;2023-01-06T08:58:07;5.85;;;1.42;;
42334;SDS011;27986;42.700;24.178;2023-01-06T09:00:34;2.67;;;0.82;;
42334;SDS011;27986;42.700;24.178;2023-01-06T09:03:01;2.10;;;0.80;;
42334;SDS011;27986;42.700;24.178;2023-01-06T09:05:27;5.20;;;1.30;;
42334;SDS011;27986;42.700;24.178;2023-01-06T09:07:53;3.83;;;1.90;;
42334;SDS011;27986;42.700;24.178;2023-01-06T09:10:19;1.73;;;0.90;;
42334;SDS011;27986;42.700;24.178;2023-01-06T09:12:45;3.55;;;1.55;;
42334;SDS011;27986;42.700;24.178;2023-01-06T09:15:16;6.13;;;1.83;;
42334;SDS011;27986;42.700;24.178;2023-01-06T09:17:42;4.93;;;2.08;;
42334;SDS011;27986;42.700;24.178;2023-01-06T09:20:08;13.13;;;4.38;;
42334;SDS011;27986;42.700;24.178;2023-01-06T09:22:34;6.88;;;3.08;;
42334;SDS011;27986;42.700;24.178;2023-01-06T09:25:00;5.72;;;2.60;;
42334;SDS011;27986;42.700;24.178;2023-01-06T09:27:25;5.03;;;1.98;;
42334;SDS011;27986;42.700;24.178;2023-01-06T09:29:51;3.95;;;1.10;;
42334;SDS011;27986;42.700;24.178;2023-01-06T09:32:17;2.53;;;0.93;;
42334;SDS011;27986;42.700;24.178;2023-01-06T09:34:42;5.90;;;2.65;;
42334;SDS011;27986;42.700;24.178;2023-01-06T09:37:08;6.43;;;2.10;;
42334;SDS011;27986;42.700;24.178;2023-01-06T09:39:33;3.60;;;1.60;;
42334;SDS011;27986;42.700;24.178;2023-01-06T09:42:08;2.53;;;1.45;;
42334;SDS011;27986;42.700;24.178;2023-01-06T09:45:00;2.95;;;0.98;;
42334;SDS011;27986;42.700;24.178;2023-01-06T09:47:29;3.92;;;1.85;;
42334;SDS011;27986;42.700;24.178;2023-01-06T09:50:13;3.60;;;1.45;;
42334;SDS011;27986;42.700;24.178;2023-01-06T09:52:47;3.03;;;1.48;;
42334;SDS011;27986;42.700;24.178;2023-01-06T09:58:13;15.27;;;6.05;;
42334;SDS011;27986;42.700;24.178;2023-01-06T10:00:46;9.10;;;2.55;;
42334;SDS011;27986;42.700;24.178;2023-01-06T10:03:14;4.60;;;1.83;;
42334;SDS011;27986;42.700;24.178;2023-01-06T10:05:51;6.82;;;2.58;;
42334;SDS011;27986;42.700;24.178;2023-01-06T10:11:24;7.35;;;2.63;;
42334;SDS011;27986;42.700;24.178;2023-01-06T10:30:03;4.07;;;0.82;;
42334;SDS011;27986;42.700;24.178;2023-01-06T10:32:40;3.30;;;1.48;;
42334;SDS011;27986;42.700;24.178;2023-01-06T10:35:12;3.58;;;1.60;;
42334;SDS011;27986;42.700;24.178;2023-01-06T10:37:40;3.65;;;1.10;;
42334;SDS011;27986;42.700;24.178;2023-01-06T10:42:46;2.58;;;1.17;;
42334;SDS011;27986;42.700;24.178;2023-01-06T10:45:20;7.22;;;1.70;;
42334;SDS011;27986;42.700;24.178;2023-01-06T10:47:47;4.65;;;1.88;;
42334;SDS011;27986;42.700;24.178;2023-01-06T10:50:14;3.28;;;1.40;;
42334;SDS011;27986;42.700;24.178;2023-01-06T10:52:41;12.18;;;5.78;;
42334;SDS011;27986;42.700;24.178;2023-01-06T10:55:11;6.43;;;1.65;;
42334;SDS011;27986;42.700;24.178;2023-01-06T10:58:06;3.40;;;1.27;;
42334;SDS011;27986;42.700;24.178;2023-01-06T11:00:37;14.32;;;5.43;;
42334;SDS011;27986;42.700;24.178;2023-01-06T11:03:18;3.77;;;1.53;;
42334;SDS011;27986;42.700;24.178;2023-01-06T11:05:45;10.77;;;2.65;;
42334;SDS011;27986;42.700;24.178;2023-01-06T11:08:11;22.52;;;9.00;;
42334;SDS011;27986;42.700;24.178;2023-01-06T11:10:43;3.05;;;0.90;;
42334;SDS011;27986;42.700;24.178;2023-01-06T11:13:23;14.90;;;6.25;;
42334;SDS011;27986;42.700;24.178;2023-01-06T11:15:53;1.90;;;0.68;;
42334;SDS011;27986;42.700;24.178;2023-01-06T11:18:21;5.00;;;1.30;;
42334;SDS011;27986;42.700;24.178;2023-01-06T11:21:04;4.20;;;1.08;;
42334;SDS011;27986;42.700;24.178;2023-01-06T11:23:34;4.18;;;1.30;;
42334;SDS011;27986;42.700;24.178;2023-01-06T11:28:35;10.18;;;3.80;;
42334;SDS011;27986;42.700;24.178;2023-01-06T11:33:45;2.28;;;0.82;;
42334;SDS011;27986;42.700;24.178;2023-01-06T11:36:22;1.95;;;1.23;;
42334;SDS011;27986;42.700;24.178;2023-01-06T11:41:39;2.28;;;1.13;;
42334;SDS011;27986;42.700;24.178;2023-01-06T11:46:36;1.27;;;0.30;;
42334;SDS011;27986;42.700;24.178;2023-01-06T11:49:11;5.55;;;1.55;;
42334;SDS011;27986;42.700;24.178;2023-01-06T11:54:15;0.80;;;0.45;;
42334;SDS011;27986;42.700;24.178;2023-01-06T11:57:01;20.65;;;1.48;;
42334;SDS011;27986;42.700;24.178;2023-01-06T11:59:49;2.05;;;0.52;;
42334;SDS011;27986;42.700;24.178;2023-01-06T12:05:34;3.90;;;0.82;;
42334;SDS011;27986;42.700;24.178;2023-01-06T12:08:23;1.10;;;0.57;;
42334;SDS011;27986;42.700;24.178;2023-01-06T12:10:57;2.65;;;0.95;;
42334;SDS011;27986;42.700;24.178;2023-01-06T12:13:28;2.03;;;1.23;;
42334;SDS011;27986;42.700;24.178;2023-01-06T12:15:58;2.40;;;0.98;;
42334;SDS011;27986;42.700;24.178;2023-01-06T12:18:29;6.22;;;1.35;;
42334;SDS011;27986;42.700;24.178;2023-01-06T12:20:59;1.08;;;0.68;;
42334;SDS011;27986;42.700;24.178;2023-01-06T12:23:28;4.20;;;2.25;;
42334;SDS011;27986;42.700;24.178;2023-01-06T12:25:58;4.07;;;1.30;;
42334;SDS011;27986;42.700;24.178;2023-01-06T12:28:30;14.70;;;3.08;;
42334;SDS011;27986;42.700;24.178;2023-01-06T12:33:44;1.75;;;0.70;;
42334;SDS011;27986;42.700;24.178;2023-01-06T12:36:19;2.25;;;0.90;;
42334;SDS011;27986;42.700;24.178;2023-01-06T12:38:56;3.53;;;0.85;;
42334;SDS011;27986;42.700;24.178;2023-01-06T12:44:10;2.72;;;1.30;;
42334;SDS011;27986;42.700;24.178;2023-01-06T12:46:39;4.65;;;1.85;;
42334;SDS011;27986;42.700;24.178;2023-01-06T12:49:16;11.13;;;3.20;;
42334;SDS011;27986;42.700;24.178;2023-01-06T12:51:53;7.70;;;3.15;;
42334;SDS011;27986;42.700;24.178;2023-01-06T12:54:27;3.60;;;1.33;;
42334;SDS011;27986;42.700;24.178;2023-01-06T12:57:00;3.33;;;1.50;;
42334;SDS011;27986;42.700;24.178;2023-01-06T13:07:41;5.53;;;1.70;;
42334;SDS011;27986;42.700;24.178;2023-01-06T13:15:30;5.03;;;1.67;;
42334;SDS011;27986;42.700;24.178;2023-01-06T13:21:12;7.55;;;1.90;;
42334;SDS011;27986;42.700;24.178;2023-01-06T13:25:59;6.25;;;2.67;;
42334;SDS011;27986;42.700;24.178;2023-01-06T13:29:17;6.00;;;2.15;;
42334;SDS011;27986;42.700;24.178;2023-01-06T13:39:53;7.10;;;2.17;;
42334;SDS011;27986;42.700;24.178;2023-01-06T13:43:06;7.50;;;2.15;;
42334;SDS011;27986;42.700;24.178;2023-01-06T13:45:19;8.48;;;2.80;;
42334;SDS011;27986;42.700;24.178;2023-01-06T13:47:56;4.45;;;2.15;;
42334;SDS011;27986;42.700;24.178;2023-01-06T13:50:24;7.57;;;2.58;;
42334;SDS011;27986;42.700;24.178;2023-01-06T13:52:51;5.70;;;1.63;;
42334;SDS011;27986;42.700;24.178;2023-01-06T13:55:22;4.95;;;1.85;;
42334;SDS011;27986;42.700;24.178;2023-01-06T14:00:17;12.52;;;3.25;;
42334;SDS011;27986;42.700;24.178;2023-01-06T14:07:41;7.72;;;2.65;;
42334;SDS011;27986;42.700;24.178;2023-01-06T14:10:31;5.50;;;1.40;;
42334;SDS011;27986;42.700;24.178;2023-01-06T14:12:59;3.95;;;2.17;;
42334;SDS011;27986;42.700;24.178;2023-01-06T14:15:29;4.93;;;2.53;;
42334;SDS011;27986;42.700;24.178;2023-01-06T14:17:57;8.88;;;3.20;;
42334;SDS011;27986;42.700;24.178;2023-01-06T14:23:06;14.93;;;4.78;;
42334;SDS011;27986;42.700;24.178;2023-01-06T14:25:41;28.50;;;8.65;;
42334;SDS011;27986;42.700;24.178;2023-01-06T14:28:21;17.60;;;5.80;;
42334;SDS011;27986;42.700;24.178;2023-01-06T14:31:35;12.75;;;2.80;;
42334;SDS011;27986;42.700;24.178;2023-01-06T14:34:00;3.85;;;1.30;;
42334;SDS011;27986;42.700;24.178;2023-01-06T14:36:28;2.80;;;1.77;;
42334;SDS011;27986;42.700;24.178;2023-01-06T14:39:00;2.67;;;1.17;;
42334;SDS011;27986;42.700;24.178;2023-01-06T14:41:29;1.90;;;0.88;;
42334;SDS011;27986;42.700;24.178;2023-01-06T14:44:03;7.60;;;2.92;;
42334;SDS011;27986;42.700;24.178;2023-01-06T14:46:40;5.43;;;2.40;;
42334;SDS011;27986;42.700;24.178;2023-01-06T14:49:19;8.68;;;2.15;;
42334;SDS011;27986;42.700;24.178;2023-01-06T14:51:49;2.95;;;1.33;;
42334;SDS011;27986;42.700;24.178;2023-01-06T14:54:29;4.80;;;2.17;;
42334;SDS011;27986;42.700;24.178;2023-01-06T14:57:00;9.90;;;4.10;;
42334;SDS011;27986;42.700;24.178;2023-01-06T14:59:27;10.52;;;3.72;;
42334;SDS011;27986;42.700;24.178;2023-01-06T15:02:00;11.80;;;4.18;;
42334;SDS011;27986;42.700;24.178;2023-01-06T15:04:29;8.20;;;2.92;;
42334;SDS011;27986;42.700;24.178;2023-01-06T15:07:00;13.70;;;3.65;;
42334;SDS011;27986;42.700;24.178;2023-01-06T15:09:29;11.57;;;4.45;;
42334;SDS011;27986;42.700;24.178;2023-01-06T15:11:55;6.45;;;2.20;;
42334;SDS011;27986;42.700;24.178;2023-01-06T15:14:24;14.68;;;3.75;;
42334;SDS011;27986;42.700;24.178;2023-01-06T15:16:51;5.57;;;2.60;;
42334;SDS011;27986;42.700;24.178;2023-01-06T15:19:19;4.88;;;1.92;;
42334;SDS011;27986;42.700;24.178;2023-01-06T15:21:45;2.83;;;0.98;;
42334;SDS011;27986;42.700;24.178;2023-01-06T15:24:19;2.85;;;1.30;;
42334;SDS011;27986;42.700;24.178;2023-01-06T15:26:48;10.07;;;3.28;;
42334;SDS011;27986;42.700;24.178;2023-01-06T15:29:16;15.07;;;3.85;;
42334;SDS011;27986;42.700;24.178;2023-01-06T15:31:44;10.15;;;3.42;;
42334;SDS011;27986;42.700;24.178;2023-01-06T15:34:15;10.73;;;4.18;;
42334;SDS011;27986;42.700;24.178;2023-01-06T15:36:44;8.75;;;3.40;;
42334;SDS011;27986;42.700;24.178;2023-01-06T15:39:12;6.38;;;2.70;;
42334;SDS011;27986;42.700;24.178;2023-01-06T15:41:40;15.40;;;4.20;;
42334;SDS011;27986;42.700;24.178;2023-01-06T15:44:28;15.80;;;4.75;;
42334;SDS011;27986;42.700;24.178;2023-01-06T15:47:02;10.93;;;3.80;;
42334;SDS011;27986;42.700;24.178;2023-01-06T15:49:49;11.60;;;4.65;;
42334;SDS011;27986;42.700;24.178;2023-01-06T15:52:26;9.85;;;4.78;;
42334;SDS011;27986;42.700;24.178;2023-01-06T15:54:57;19.95;;;7.35;;
42334;SDS011;27986;42.700;24.178;2023-01-06T15:57:26;9.55;;;3.33;;
42334;SDS011;27986;42.700;24.178;2023-01-06T15:59:56;5.53;;;3.45;;
42334;SDS011;27986;42.700;24.178;2023-01-06T16:02:27;5.15;;;2.20;;
42334;SDS011;27986;42.700;24.178;2023-01-06T16:04:54;14.50;;;5.35;;
42334;SDS011;27986;42.700;24.178;2023-01-06T16:09:59;13.93;;;4.00;;
42334;SDS011;27986;42.700;24.178;2023-01-06T16:12:25;9.52;;;4.35;;
42334;SDS011;27986;42.700;24.178;2023-01-06T16:14:50;17.50;;;6.90;;
42334;SDS011;27986;42.700;24.178;2023-01-06T16:20:03;23.90;;;8.50;;
42334;SDS011;27986;42.700;24.178;2023-01-06T16:23:04;11.40;;;5.03;;
42334;SDS011;27986;42.700;24.178;2023-01-06T16:25:24;20.02;;;6.93;;
42334;SDS011;27986;42.700;24.178;2023-01-06T16:27:53;11.25;;;4.25;;
42334;SDS011;27986;42.700;24.178;2023-01-06T16:30:22;20.67;;;6.57;;
42334;SDS011;27986;42.700;24.178;2023-01-06T16:32:48;26.65;;;9.57;;
42334;SDS011;27986;42.700;24.178;2023-01-06T16:35:17;24.85;;;9.25;;
42334;SDS011;27986;42.700;24.178;2023-01-06T16:37:44;29.58;;;10.35;;
42334;SDS011;27986;42.700;24.178;2023-01-06T16:40:14;21.10;;;7.80;;
42334;SDS011;27986;42.700;24.178;2023-01-06T16:42:41;23.90;;;8.98;;
42334;SDS011;27986;42.700;24.178;2023-01-06T16:45:16;18.98;;;9.13;;
42334;SDS011;27986;42.700;24.178;2023-01-06T16:48:01;20.52;;;8.52;;
42334;SDS011;27986;42.700;24.178;2023-01-06T16:50:38;16.42;;;5.70;;
42334;SDS011;27986;42.700;24.178;2023-01-06T16:53:12;17.52;;;5.55;;
42334;SDS011;27986;42.700;24.178;2023-01-06T16:55:40;13.95;;;5.60;;
42334;SDS011;27986;42.700;24.178;2023-01-06T17:00:54;29.10;;;13.38;;